sensor_id;sensor_type;location;lat;lon;timestamp;P1;durP1;ratioP1;P2;durP2;ratioP2
5295;SDS011;2670;42.720;23.336;2023-07-29T00:01:51;3.70;;;2.90;;
5295;SDS011;2670;42.720;23.336;2023-07-29T00:04:19;5.07;;;3.27;;
5295;SDS011;2670;42.720;23.336;2023-07-29T00:06:46;5.10;;;3.30;;
5295;SDS011;2670;42.720;23.336;2023-07-29T00:09:14;4.73;;;3.50;;
5295;SDS011;2670;42.720;23.336;2023-07-29T00:11:41;4.10;;;3.10;;
5295;SDS011;2670;42.720;23.336;2023-07-29T00:14:07;4.63;;;3.03;;
5295;SDS011;2670;42.720;23.336;2023-07-29T00:16:34;4.03;;;3.00;;
5295;SDS011;2670;42.720;23.336;2023-07-29T00:19:02;4.10;;;2.97;;
5295;SDS011;2670;42.720;23.336;2023-07-29T00:21:29;4.33;;;3.30;;
5295;SDS011;2670;42.720;23.336;2023-07-29T00:23:55;5.83;;;3.80;;
5295;SDS011;2670;42.720;23.336;2023-07-29T00:26:24;3.90;;;3.10;;
5295;SDS011;2670;42.720;23.336;2023-07-29T00:28:53;4.53;;;3.57;;
5295;SDS011;2670;42.720;23.336;2023-07-29T00:31:20;7.23;;;3.30;;
5295;SDS011;2670;42.720;23.336;2023-07-29T00:33:47;4.90;;;3.33;;
5295;SDS011;2670;42.720;23.336;2023-07-29T00:36:14;8.63;;;3.20;;
5295;SDS011;2670;42.720;23.336;2023-07-29T00:38:40;5.37;;;3.47;;
5295;SDS011;2670;42.720;23.336;2023-07-29T00:41:07;4.97;;;3.10;;
5295;SDS011;2670;42.720;23.336;2023-07-29T00:43:39;5.30;;;3.60;;
5295;SDS011;2670;42.720;23.336;2023-07-29T00:46:06;5.77;;;3.60;;
5295;SDS011;2670;42.720;23.336;2023-07-29T00:48:34;4.23;;;3.23;;
5295;SDS011;2670;42.720;23.336;2023-07-29T00:51:02;9.80;;;3.27;;
5295;SDS011;2670;42.720;23.336;2023-07-29T00:53:28;6.30;;;3.80;;
5295;SDS011;2670;42.720;23.336;2023-07-29T00:55:55;4.17;;;3.03;;
5295;SDS011;2670;42.720;23.336;2023-07-29T00:58:22;10.17;;;3.60;;
5295;SDS011;2670;42.720;23.336;2023-07-29T01:00:50;5.13;;;3.60;;
5295;SDS011;2670;42.720;23.336;2023-07-29T01:03:18;6.43;;;3.30;;
5295;SDS011;2670;42.720;23.336;2023-07-29T01:05:48;4.23;;;3.50;;
5295;SDS011;2670;42.720;23.336;2023-07-29T01:08:27;4.30;;;3.20;;
5295;SDS011;2670;42.720;23.336;2023-07-29T01:11:08;5.03;;;3.13;;
5295;SDS011;2670;42.720;23.336;2023-07-29T01:13:46;9.43;;;3.50;;
5295;SDS011;2670;42.720;23.336;2023-07-29T01:16:20;4.57;;;3.50;;
5295;SDS011;2670;42.720;23.336;2023-07-29T01:18:49;5.50;;;3.63;;
5295;SDS011;2670;42.720;23.336;2023-07-29T01:21:20;6.00;;;3.23;;
5295;SDS011;2670;42.720;23.336;2023-07-29T01:23:50;5.60;;;3.37;;
5295;SDS011;2670;42.720;23.336;2023-07-29T01:26:18;5.90;;;3.60;;
5295;SDS011;2670;42.720;23.336;2023-07-29T01:28:45;4.70;;;3.60;;
5295;SDS011;2670;42.720;23.336;2023-07-29T01:31:13;5.03;;;3.20;;
5295;SDS011;2670;42.720;23.336;2023-07-29T01:33:47;6.20;;;3.77;;
5295;SDS011;2670;42.720;23.336;2023-07-29T01:36:21;7.00;;;3.73;;
5295;SDS011;2670;42.720;23.336;2023-07-29T01:38:51;4.70;;;3.17;;
5295;SDS011;2670;42.720;23.336;2023-07-29T01:41:19;4.43;;;3.40;;
5295;SDS011;2670;42.720;23.336;2023-07-29T01:43:47;4.17;;;3.00;;
5295;SDS011;2670;42.720;23.336;2023-07-29T01:46:14;4.50;;;3.30;;
5295;SDS011;2670;42.720;23.336;2023-07-29T01:48:41;13.60;;;3.60;;
5295;SDS011;2670;42.720;23.336;2023-07-29T01:51:10;8.33;;;3.17;;
5295;SDS011;2670;42.720;23.336;2023-07-29T01:53:38;5.00;;;3.70;;
5295;SDS011;2670;42.720;23.336;2023-07-29T01:56:06;3.83;;;3.17;;
5295;SDS011;2670;42.720;23.336;2023-07-29T01:58:32;3.40;;;3.10;;
5295;SDS011;2670;42.720;23.336;2023-07-29T02:00:59;3.93;;;3.13;;
5295;SDS011;2670;42.720;23.336;2023-07-29T02:03:26;3.70;;;2.93;;
5295;SDS011;2670;42.720;23.336;2023-07-29T02:05:53;3.37;;;2.90;;
5295;SDS011;2670;42.720;23.336;2023-07-29T02:08:19;4.87;;;3.53;;
5295;SDS011;2670;42.720;23.336;2023-07-29T02:10:46;5.17;;;3.10;;
5295;SDS011;2670;42.720;23.336;2023-07-29T02:13:15;5.70;;;3.67;;
5295;SDS011;2670;42.720;23.336;2023-07-29T02:15:41;3.70;;;3.20;;
5295;SDS011;2670;42.720;23.336;2023-07-29T02:18:09;3.90;;;3.00;;
5295;SDS011;2670;42.720;23.336;2023-07-29T02:20:35;5.57;;;3.30;;
5295;SDS011;2670;42.720;23.336;2023-07-29T02:23:02;4.17;;;2.83;;
5295;SDS011;2670;42.720;23.336;2023-07-29T02:25:29;3.87;;;3.33;;
5295;SDS011;2670;42.720;23.336;2023-07-29T02:27:56;6.13;;;3.33;;
5295;SDS011;2670;42.720;23.336;2023-07-29T02:30:24;5.30;;;3.50;;
5295;SDS011;2670;42.720;23.336;2023-07-29T02:32:51;5.20;;;3.27;;
5295;SDS011;2670;42.720;23.336;2023-07-29T02:35:18;6.07;;;3.50;;
5295;SDS011;2670;42.720;23.336;2023-07-29T02:37:44;7.00;;;3.67;;
5295;SDS011;2670;42.720;23.336;2023-07-29T02:40:11;4.53;;;3.53;;
5295;SDS011;2670;42.720;23.336;2023-07-29T02:42:38;6.93;;;3.67;;
5295;SDS011;2670;42.720;23.336;2023-07-29T02:45:05;5.73;;;3.60;;
5295;SDS011;2670;42.720;23.336;2023-07-29T02:47:36;5.83;;;3.73;;
5295;SDS011;2670;42.720;23.336;2023-07-29T02:50:03;6.83;;;4.00;;
5295;SDS011;2670;42.720;23.336;2023-07-29T02:52:30;5.33;;;4.40;;
5295;SDS011;2670;42.720;23.336;2023-07-29T02:54:57;5.57;;;3.90;;
5295;SDS011;2670;42.720;23.336;2023-07-29T02:57:24;8.60;;;4.63;;
5295;SDS011;2670;42.720;23.336;2023-07-29T02:59:50;5.93;;;3.80;;
5295;SDS011;2670;42.720;23.336;2023-07-29T03:02:17;6.67;;;3.80;;
5295;SDS011;2670;42.720;23.336;2023-07-29T03:04:45;4.10;;;3.10;;
5295;SDS011;2670;42.720;23.336;2023-07-29T03:07:14;4.90;;;3.60;;
5295;SDS011;2670;42.720;23.336;2023-07-29T03:09:41;4.97;;;3.80;;
5295;SDS011;2670;42.720;23.336;2023-07-29T03:12:09;5.37;;;3.80;;
5295;SDS011;2670;42.720;23.336;2023-07-29T03:14:36;4.90;;;3.73;;
5295;SDS011;2670;42.720;23.336;2023-07-29T03:17:02;4.63;;;3.80;;
5295;SDS011;2670;42.720;23.336;2023-07-29T03:19:30;5.57;;;4.10;;
5295;SDS011;2670;42.720;23.336;2023-07-29T03:21:58;4.43;;;3.47;;
5295;SDS011;2670;42.720;23.336;2023-07-29T03:24:25;4.70;;;3.67;;
5295;SDS011;2670;42.720;23.336;2023-07-29T03:26:51;4.30;;;3.40;;
5295;SDS011;2670;42.720;23.336;2023-07-29T03:29:18;5.63;;;3.50;;
5295;SDS011;2670;42.720;23.336;2023-07-29T03:31:45;5.20;;;3.70;;
5295;SDS011;2670;42.720;23.336;2023-07-29T03:34:11;5.57;;;4.00;;
5295;SDS011;2670;42.720;23.336;2023-07-29T03:36:38;7.00;;;3.70;;
5295;SDS011;2670;42.720;23.336;2023-07-29T03:39:07;5.70;;;3.80;;
5295;SDS011;2670;42.720;23.336;2023-07-29T03:41:33;5.23;;;4.20;;
5295;SDS011;2670;42.720;23.336;2023-07-29T03:44:00;5.43;;;4.03;;
5295;SDS011;2670;42.720;23.336;2023-07-29T03:46:27;5.60;;;3.77;;
5295;SDS011;2670;42.720;23.336;2023-07-29T03:48:54;4.43;;;3.60;;
5295;SDS011;2670;42.720;23.336;2023-07-29T03:51:20;4.50;;;3.73;;
5295;SDS011;2670;42.720;23.336;2023-07-29T03:53:48;6.07;;;4.43;;
5295;SDS011;2670;42.720;23.336;2023-07-29T03:56:16;9.03;;;3.40;;
5295;SDS011;2670;42.720;23.336;2023-07-29T03:58:42;3.90;;;3.20;;
5295;SDS011;2670;42.720;23.336;2023-07-29T04:01:09;9.13;;;4.07;;
5295;SDS011;2670;42.720;23.336;2023-07-29T04:03:36;6.30;;;4.60;;
5295;SDS011;2670;42.720;23.336;2023-07-29T04:06:03;7.07;;;4.23;;
5295;SDS011;2670;42.720;23.336;2023-07-29T04:08:30;4.90;;;3.90;;
5295;SDS011;2670;42.720;23.336;2023-07-29T04:10:56;8.10;;;3.90;;
5295;SDS011;2670;42.720;23.336;2023-07-29T04:13:25;6.50;;;3.93;;
5295;SDS011;2670;42.720;23.336;2023-07-29T04:15:51;4.43;;;3.57;;
5295;SDS011;2670;42.720;23.336;2023-07-29T04:18:18;5.37;;;3.67;;
5295;SDS011;2670;42.720;23.336;2023-07-29T04:20:44;5.60;;;4.13;;
5295;SDS011;2670;42.720;23.336;2023-07-29T04:23:11;7.07;;;4.00;;
5295;SDS011;2670;42.720;23.336;2023-07-29T04:25:38;6.63;;;4.53;;
5295;SDS011;2670;42.720;23.336;2023-07-29T04:28:05;5.17;;;4.33;;
5295;SDS011;2670;42.720;23.336;2023-07-29T04:30:33;6.00;;;3.57;;
5295;SDS011;2670;42.720;23.336;2023-07-29T04:32:59;5.40;;;3.90;;
5295;SDS011;2670;42.720;23.336;2023-07-29T04:35:26;7.63;;;4.20;;
5295;SDS011;2670;42.720;23.336;2023-07-29T04:37:53;6.93;;;4.00;;
5295;SDS011;2670;42.720;23.336;2023-07-29T04:40:19;7.83;;;4.37;;
5295;SDS011;2670;42.720;23.336;2023-07-29T04:42:47;7.87;;;4.80;;
5295;SDS011;2670;42.720;23.336;2023-07-29T04:45:14;9.37;;;5.50;;
5295;SDS011;2670;42.720;23.336;2023-07-29T04:47:42;8.87;;;5.90;;
5295;SDS011;2670;42.720;23.336;2023-07-29T04:50:09;8.77;;;6.27;;
5295;SDS011;2670;42.720;23.336;2023-07-29T04:52:36;14.10;;;8.13;;
5295;SDS011;2670;42.720;23.336;2023-07-29T04:55:03;15.83;;;8.80;;
5295;SDS011;2670;42.720;23.336;2023-07-29T04:57:30;10.97;;;8.30;;
5295;SDS011;2670;42.720;23.336;2023-07-29T04:59:57;10.50;;;8.10;;
5295;SDS011;2670;42.720;23.336;2023-07-29T05:02:24;10.93;;;6.97;;
5295;SDS011;2670;42.720;23.336;2023-07-29T05:04:52;7.80;;;5.10;;
5295;SDS011;2670;42.720;23.336;2023-07-29T05:07:19;13.20;;;6.03;;
5295;SDS011;2670;42.720;23.336;2023-07-29T05:09:47;8.87;;;7.23;;
5295;SDS011;2670;42.720;23.336;2023-07-29T05:12:13;14.33;;;7.20;;
5295;SDS011;2670;42.720;23.336;2023-07-29T05:14:40;11.53;;;6.70;;
5295;SDS011;2670;42.720;23.336;2023-07-29T05:17:07;8.13;;;5.43;;
5295;SDS011;2670;42.720;23.336;2023-07-29T05:19:33;8.43;;;6.13;;
5295;SDS011;2670;42.720;23.336;2023-07-29T05:22:02;10.50;;;5.53;;
5295;SDS011;2670;42.720;23.336;2023-07-29T05:24:28;7.60;;;5.80;;
5295;SDS011;2670;42.720;23.336;2023-07-29T05:26:55;7.90;;;5.43;;
5295;SDS011;2670;42.720;23.336;2023-07-29T05:29:22;13.97;;;6.03;;
5295;SDS011;2670;42.720;23.336;2023-07-29T05:31:48;9.20;;;6.33;;
5295;SDS011;2670;42.720;23.336;2023-07-29T05:34:15;8.43;;;7.27;;
5295;SDS011;2670;42.720;23.336;2023-07-29T05:36:42;13.10;;;5.83;;
5295;SDS011;2670;42.720;23.336;2023-07-29T05:39:10;9.20;;;6.10;;
5295;SDS011;2670;42.720;23.336;2023-07-29T05:41:38;7.30;;;5.33;;
5295;SDS011;2670;42.720;23.336;2023-07-29T05:44:04;8.27;;;5.30;;
5295;SDS011;2670;42.720;23.336;2023-07-29T05:46:31;6.80;;;5.37;;
5295;SDS011;2670;42.720;23.336;2023-07-29T05:48:58;17.60;;;5.97;;
5295;SDS011;2670;42.720;23.336;2023-07-29T05:51:24;13.43;;;6.07;;
5295;SDS011;2670;42.720;23.336;2023-07-29T05:53:51;7.37;;;5.77;;
5295;SDS011;2670;42.720;23.336;2023-07-29T05:56:19;7.60;;;5.07;;
5295;SDS011;2670;42.720;23.336;2023-07-29T05:58:46;12.03;;;5.20;;
5295;SDS011;2670;42.720;23.336;2023-07-29T06:01:13;8.23;;;5.20;;
5295;SDS011;2670;42.720;23.336;2023-07-29T06:03:39;9.60;;;4.97;;
5295;SDS011;2670;42.720;23.336;2023-07-29T06:06:06;9.43;;;4.90;;
5295;SDS011;2670;42.720;23.336;2023-07-29T06:08:33;10.47;;;4.70;;
5295;SDS011;2670;42.720;23.336;2023-07-29T06:11:00;6.50;;;4.53;;
5295;SDS011;2670;42.720;23.336;2023-07-29T06:13:28;6.60;;;4.80;;
5295;SDS011;2670;42.720;23.336;2023-07-29T06:15:55;6.20;;;5.20;;
5295;SDS011;2670;42.720;23.336;2023-07-29T06:18:21;7.53;;;4.53;;
5295;SDS011;2670;42.720;23.336;2023-07-29T06:20:48;6.50;;;4.67;;
5295;SDS011;2670;42.720;23.336;2023-07-29T06:23:15;7.40;;;5.20;;
5295;SDS011;2670;42.720;23.336;2023-07-29T06:25:41;6.10;;;5.17;;
5295;SDS011;2670;42.720;23.336;2023-07-29T06:28:08;5.17;;;4.67;;
5295;SDS011;2670;42.720;23.336;2023-07-29T06:30:37;11.77;;;5.20;;
5295;SDS011;2670;42.720;23.336;2023-07-29T06:33:03;11.30;;;5.30;;
5295;SDS011;2670;42.720;23.336;2023-07-29T06:35:30;9.00;;;5.70;;
5295;SDS011;2670;42.720;23.336;2023-07-29T06:37:57;8.93;;;5.60;;
5295;SDS011;2670;42.720;23.336;2023-07-29T06:40:24;8.57;;;5.93;;
5295;SDS011;2670;42.720;23.336;2023-07-29T06:42:51;9.07;;;5.30;;
5295;SDS011;2670;42.720;23.336;2023-07-29T06:45:18;8.10;;;6.07;;
5295;SDS011;2670;42.720;23.336;2023-07-29T06:47:46;7.30;;;5.63;;
5295;SDS011;2670;42.720;23.336;2023-07-29T06:50:13;8.23;;;5.77;;
5295;SDS011;2670;42.720;23.336;2023-07-29T06:52:39;15.23;;;6.67;;
5295;SDS011;2670;42.720;23.336;2023-07-29T06:55:06;7.53;;;5.73;;
5295;SDS011;2670;42.720;23.336;2023-07-29T06:57:33;7.87;;;6.13;;
5295;SDS011;2670;42.720;23.336;2023-07-29T07:00:00;12.23;;;6.30;;
5295;SDS011;2670;42.720;23.336;2023-07-29T07:02:28;11.57;;;7.00;;
5295;SDS011;2670;42.720;23.336;2023-07-29T07:04:56;22.20;;;7.30;;
5295;SDS011;2670;42.720;23.336;2023-07-29T07:07:23;24.67;;;6.73;;
5295;SDS011;2670;42.720;23.336;2023-07-29T07:09:49;12.03;;;5.97;;
5295;SDS011;2670;42.720;23.336;2023-07-29T07:12:16;8.50;;;6.20;;
5295;SDS011;2670;42.720;23.336;2023-07-29T07:14:43;10.40;;;5.43;;
5295;SDS011;2670;42.720;23.336;2023-07-29T07:17:10;7.60;;;5.40;;
5295;SDS011;2670;42.720;23.336;2023-07-29T07:19:36;21.07;;;5.90;;
5295;SDS011;2670;42.720;23.336;2023-07-29T07:22:04;14.37;;;6.00;;
5295;SDS011;2670;42.720;23.336;2023-07-29T07:24:31;18.33;;;5.87;;
5295;SDS011;2670;42.720;23.336;2023-07-29T07:26:58;12.43;;;5.77;;
5295;SDS011;2670;42.720;23.336;2023-07-29T07:29:25;9.50;;;6.03;;
5295;SDS011;2670;42.720;23.336;2023-07-29T07:31:52;8.47;;;5.73;;
5295;SDS011;2670;42.720;23.336;2023-07-29T07:34:20;8.93;;;5.90;;
5295;SDS011;2670;42.720;23.336;2023-07-29T07:36:47;14.43;;;6.20;;
5295;SDS011;2670;42.720;23.336;2023-07-29T07:39:15;13.47;;;5.43;;
5295;SDS011;2670;42.720;23.336;2023-07-29T07:41:42;10.27;;;5.47;;
5295;SDS011;2670;42.720;23.336;2023-07-29T07:44:09;7.10;;;5.20;;
5295;SDS011;2670;42.720;23.336;2023-07-29T07:46:36;9.50;;;5.37;;
5295;SDS011;2670;42.720;23.336;2023-07-29T07:49:02;10.50;;;5.57;;
5295;SDS011;2670;42.720;23.336;2023-07-29T07:51:29;9.43;;;5.07;;
5295;SDS011;2670;42.720;23.336;2023-07-29T07:53:56;13.23;;;5.20;;
5295;SDS011;2670;42.720;23.336;2023-07-29T07:56:24;13.73;;;5.20;;
5295;SDS011;2670;42.720;23.336;2023-07-29T07:58:50;10.23;;;4.23;;
5295;SDS011;2670;42.720;23.336;2023-07-29T08:01:17;10.30;;;4.70;;
5295;SDS011;2670;42.720;23.336;2023-07-29T08:03:44;7.40;;;4.13;;
5295;SDS011;2670;42.720;23.336;2023-07-29T08:06:11;6.57;;;4.23;;
5295;SDS011;2670;42.720;23.336;2023-07-29T08:08:38;10.60;;;4.90;;
5295;SDS011;2670;42.720;23.336;2023-07-29T08:11:04;9.50;;;4.60;;
5295;SDS011;2670;42.720;23.336;2023-07-29T08:13:32;6.50;;;4.27;;
5295;SDS011;2670;42.720;23.336;2023-07-29T08:15:59;5.00;;;3.93;;
5295;SDS011;2670;42.720;23.336;2023-07-29T08:18:26;7.13;;;4.30;;
5295;SDS011;2670;42.720;23.336;2023-07-29T08:20:53;8.87;;;4.43;;
5295;SDS011;2670;42.720;23.336;2023-07-29T08:23:24;8.50;;;4.40;;
5295;SDS011;2670;42.720;23.336;2023-07-29T08:25:52;6.37;;;3.90;;
5295;SDS011;2670;42.720;23.336;2023-07-29T08:28:21;7.20;;;4.73;;
5295;SDS011;2670;42.720;23.336;2023-07-29T08:30:49;7.67;;;4.43;;
5295;SDS011;2670;42.720;23.336;2023-07-29T08:33:15;6.30;;;4.50;;
5295;SDS011;2670;42.720;23.336;2023-07-29T08:35:42;5.37;;;4.20;;
5295;SDS011;2670;42.720;23.336;2023-07-29T08:38:09;11.90;;;4.60;;
5295;SDS011;2670;42.720;23.336;2023-07-29T08:40:37;10.33;;;3.90;;
5295;SDS011;2670;42.720;23.336;2023-07-29T08:43:08;9.60;;;3.97;;
5295;SDS011;2670;42.720;23.336;2023-07-29T08:45:37;8.63;;;3.90;;
5295;SDS011;2670;42.720;23.336;2023-07-29T08:48:08;5.90;;;3.30;;
5295;SDS011;2670;42.720;23.336;2023-07-29T08:50:37;6.90;;;3.93;;
5295;SDS011;2670;42.720;23.336;2023-07-29T08:53:04;6.63;;;3.70;;
5295;SDS011;2670;42.720;23.336;2023-07-29T08:55:31;5.50;;;3.70;;
5295;SDS011;2670;42.720;23.336;2023-07-29T08:57:59;11.10;;;4.50;;
5295;SDS011;2670;42.720;23.336;2023-07-29T09:00:26;7.50;;;4.00;;
5295;SDS011;2670;42.720;23.336;2023-07-29T09:02:54;11.10;;;4.10;;
5295;SDS011;2670;42.720;23.336;2023-07-29T09:05:24;6.67;;;3.30;;
5295;SDS011;2670;42.720;23.336;2023-07-29T09:07:51;8.13;;;3.70;;
5295;SDS011;2670;42.720;23.336;2023-07-29T09:10:21;6.03;;;2.87;;
5295;SDS011;2670;42.720;23.336;2023-07-29T09:12:49;9.63;;;3.33;;
5295;SDS011;2670;42.720;23.336;2023-07-29T09:15:25;9.90;;;3.13;;
5295;SDS011;2670;42.720;23.336;2023-07-29T09:17:53;5.03;;;3.00;;
5295;SDS011;2670;42.720;23.336;2023-07-29T09:20:24;2.60;;;2.40;;
5295;SDS011;2670;42.720;23.336;2023-07-29T09:22:52;4.60;;;3.00;;
5295;SDS011;2670;42.720;23.336;2023-07-29T09:25:24;2.90;;;2.43;;
5295;SDS011;2670;42.720;23.336;2023-07-29T09:27:51;9.73;;;3.30;;
5295;SDS011;2670;42.720;23.336;2023-07-29T09:30:18;5.30;;;2.00;;
5295;SDS011;2670;42.720;23.336;2023-07-29T09:32:45;2.60;;;1.63;;
5295;SDS011;2670;42.720;23.336;2023-07-29T09:35:12;4.27;;;1.90;;
5295;SDS011;2670;42.720;23.336;2023-07-29T09:37:40;2.33;;;2.00;;
5295;SDS011;2670;42.720;23.336;2023-07-29T09:40:07;2.00;;;1.80;;
5295;SDS011;2670;42.720;23.336;2023-07-29T09:42:40;3.60;;;1.70;;
5295;SDS011;2670;42.720;23.336;2023-07-29T09:45:18;2.07;;;1.50;;
5295;SDS011;2670;42.720;23.336;2023-07-29T09:47:46;2.40;;;1.60;;
5295;SDS011;2670;42.720;23.336;2023-07-29T09:50:13;1.47;;;1.30;;
5295;SDS011;2670;42.720;23.336;2023-07-29T09:52:44;2.93;;;2.03;;
5295;SDS011;2670;42.720;23.336;2023-07-29T09:55:13;5.20;;;1.83;;
5295;SDS011;2670;42.720;23.336;2023-07-29T09:57:43;2.37;;;1.40;;
5295;SDS011;2670;42.720;23.336;2023-07-29T10:00:10;3.93;;;1.30;;
5295;SDS011;2670;42.720;23.336;2023-07-29T10:02:37;1.60;;;1.50;;
5295;SDS011;2670;42.720;23.336;2023-07-29T10:05:06;2.00;;;1.40;;
5295;SDS011;2670;42.720;23.336;2023-07-29T10:07:36;3.90;;;1.03;;
5295;SDS011;2670;42.720;23.336;2023-07-29T10:10:08;4.40;;;1.43;;
5295;SDS011;2670;42.720;23.336;2023-07-29T10:12:35;1.37;;;1.27;;
5295;SDS011;2670;42.720;23.336;2023-07-29T10:15:03;4.83;;;1.87;;
5295;SDS011;2670;42.720;23.336;2023-07-29T10:17:31;2.43;;;1.57;;
5295;SDS011;2670;42.720;23.336;2023-07-29T10:20:00;3.17;;;1.30;;
5295;SDS011;2670;42.720;23.336;2023-07-29T10:22:27;2.13;;;1.27;;
5295;SDS011;2670;42.720;23.336;2023-07-29T10:25:01;3.10;;;1.80;;
5295;SDS011;2670;42.720;23.336;2023-07-29T10:27:31;1.93;;;1.57;;
5295;SDS011;2670;42.720;23.336;2023-07-29T10:30:07;5.30;;;2.10;;
5295;SDS011;2670;42.720;23.336;2023-07-29T10:32:36;1.70;;;1.50;;
5295;SDS011;2670;42.720;23.336;2023-07-29T10:35:05;2.27;;;1.80;;
5295;SDS011;2670;42.720;23.336;2023-07-29T10:37:32;2.80;;;1.90;;
5295;SDS011;2670;42.720;23.336;2023-07-29T10:39:59;4.40;;;1.70;;
5295;SDS011;2670;42.720;23.336;2023-07-29T10:42:26;1.40;;;1.30;;
5295;SDS011;2670;42.720;23.336;2023-07-29T10:44:54;3.60;;;1.40;;
5295;SDS011;2670;42.720;23.336;2023-07-29T10:47:22;2.10;;;1.47;;
5295;SDS011;2670;42.720;23.336;2023-07-29T10:49:50;2.10;;;1.30;;
5295;SDS011;2670;42.720;23.336;2023-07-29T10:52:37;3.17;;;1.50;;
5295;SDS011;2670;42.720;23.336;2023-07-29T10:57:50;1.50;;;1.20;;
5295;SDS011;2670;42.720;23.336;2023-07-29T11:00:20;9.23;;;1.37;;
5295;SDS011;2670;42.720;23.336;2023-07-29T11:02:56;1.93;;;1.40;;
5295;SDS011;2670;42.720;23.336;2023-07-29T11:05:26;1.10;;;1.00;;
5295;SDS011;2670;42.720;23.336;2023-07-29T11:08:15;1.23;;;1.13;;
5295;SDS011;2670;42.720;23.336;2023-07-29T11:10:43;1.37;;;1.20;;
5295;SDS011;2670;42.720;23.336;2023-07-29T11:13:10;3.20;;;1.47;;
5295;SDS011;2670;42.720;23.336;2023-07-29T11:15:38;1.67;;;1.40;;
5295;SDS011;2670;42.720;23.336;2023-07-29T11:18:05;6.30;;;1.73;;
5295;SDS011;2670;42.720;23.336;2023-07-29T11:20:36;2.23;;;1.20;;
5295;SDS011;2670;42.720;23.336;2023-07-29T11:23:03;4.20;;;1.67;;
5295;SDS011;2670;42.720;23.336;2023-07-29T11:25:31;1.53;;;1.10;;
5295;SDS011;2670;42.720;23.336;2023-07-29T11:27:59;3.70;;;1.60;;
5295;SDS011;2670;42.720;23.336;2023-07-29T11:30:26;3.93;;;1.70;;
5295;SDS011;2670;42.720;23.336;2023-07-29T11:32:55;2.27;;;2.07;;
5295;SDS011;2670;42.720;23.336;2023-07-29T11:35:23;2.50;;;1.40;;
5295;SDS011;2670;42.720;23.336;2023-07-29T11:37:51;6.33;;;1.70;;
5295;SDS011;2670;42.720;23.336;2023-07-29T11:40:21;1.93;;;1.50;;
5295;SDS011;2670;42.720;23.336;2023-07-29T11:42:49;10.60;;;2.00;;
5295;SDS011;2670;42.720;23.336;2023-07-29T11:45:18;2.30;;;1.77;;
5295;SDS011;2670;42.720;23.336;2023-07-29T11:47:48;2.13;;;1.47;;
5295;SDS011;2670;42.720;23.336;2023-07-29T11:50:16;1.97;;;1.53;;
5295;SDS011;2670;42.720;23.336;2023-07-29T11:52:43;1.93;;;1.50;;
5295;SDS011;2670;42.720;23.336;2023-07-29T11:55:11;3.20;;;1.80;;
5295;SDS011;2670;42.720;23.336;2023-07-29T11:57:39;3.30;;;1.60;;
5295;SDS011;2670;42.720;23.336;2023-07-29T12:00:08;1.63;;;1.50;;
5295;SDS011;2670;42.720;23.336;2023-07-29T12:02:37;1.57;;;1.40;;
5295;SDS011;2670;42.720;23.336;2023-07-29T12:05:05;3.07;;;1.87;;
5295;SDS011;2670;42.720;23.336;2023-07-29T12:07:36;1.60;;;1.30;;
5295;SDS011;2670;42.720;23.336;2023-07-29T12:10:05;1.87;;;1.50;;
5295;SDS011;2670;42.720;23.336;2023-07-29T12:12:32;4.73;;;1.70;;
5295;SDS011;2670;42.720;23.336;2023-07-29T12:14:59;1.30;;;1.20;;
5295;SDS011;2670;42.720;23.336;2023-07-29T12:17:26;1.33;;;1.20;;
5295;SDS011;2670;42.720;23.336;2023-07-29T12:19:54;1.73;;;1.57;;
5295;SDS011;2670;42.720;23.336;2023-07-29T12:22:21;1.50;;;1.40;;
5295;SDS011;2670;42.720;23.336;2023-07-29T12:24:50;1.50;;;1.30;;
5295;SDS011;2670;42.720;23.336;2023-07-29T12:27:18;2.60;;;1.47;;
5295;SDS011;2670;42.720;23.336;2023-07-29T12:29:48;1.73;;;1.53;;
5295;SDS011;2670;42.720;23.336;2023-07-29T12:32:18;2.30;;;1.27;;
5295;SDS011;2670;42.720;23.336;2023-07-29T12:34:44;2.23;;;1.50;;
5295;SDS011;2670;42.720;23.336;2023-07-29T12:37:11;2.30;;;1.83;;
5295;SDS011;2670;42.720;23.336;2023-07-29T12:39:39;1.60;;;1.50;;
5295;SDS011;2670;42.720;23.336;2023-07-29T12:42:08;2.03;;;1.70;;
5295;SDS011;2670;42.720;23.336;2023-07-29T12:44:35;2.10;;;1.90;;
5295;SDS011;2670;42.720;23.336;2023-07-29T12:47:04;1.70;;;1.47;;
5295;SDS011;2670;42.720;23.336;2023-07-29T12:49:33;1.57;;;1.43;;
5295;SDS011;2670;42.720;23.336;2023-07-29T12:52:00;1.90;;;1.30;;
5295;SDS011;2670;42.720;23.336;2023-07-29T12:54:27;1.30;;;1.10;;
5295;SDS011;2670;42.720;23.336;2023-07-29T12:56:54;1.57;;;1.40;;
5295;SDS011;2670;42.720;23.336;2023-07-29T12:59:22;2.03;;;1.50;;
5295;SDS011;2670;42.720;23.336;2023-07-29T13:01:49;2.40;;;1.40;;
5295;SDS011;2670;42.720;23.336;2023-07-29T13:04:15;2.63;;;1.30;;
5295;SDS011;2670;42.720;23.336;2023-07-29T13:06:42;2.03;;;1.50;;
5295;SDS011;2670;42.720;23.336;2023-07-29T13:09:09;2.60;;;1.40;;
5295;SDS011;2670;42.720;23.336;2023-07-29T13:11:35;2.53;;;1.67;;
5295;SDS011;2670;42.720;23.336;2023-07-29T13:14:02;1.97;;;1.77;;
5295;SDS011;2670;42.720;23.336;2023-07-29T13:16:30;1.50;;;1.30;;
5295;SDS011;2670;42.720;23.336;2023-07-29T13:18:57;2.27;;;1.43;;
5295;SDS011;2670;42.720;23.336;2023-07-29T13:21:24;1.60;;;1.50;;
5295;SDS011;2670;42.720;23.336;2023-07-29T13:23:50;1.77;;;1.50;;
5295;SDS011;2670;42.720;23.336;2023-07-29T13:26:17;1.80;;;1.50;;
5295;SDS011;2670;42.720;23.336;2023-07-29T13:28:44;1.90;;;1.40;;
5295;SDS011;2670;42.720;23.336;2023-07-29T13:31:10;1.83;;;1.47;;
5295;SDS011;2670;42.720;23.336;2023-07-29T13:33:39;2.03;;;1.57;;
5295;SDS011;2670;42.720;23.336;2023-07-29T13:36:06;4.40;;;1.87;;
5295;SDS011;2670;42.720;23.336;2023-07-29T13:38:33;2.20;;;1.40;;
5295;SDS011;2670;42.720;23.336;2023-07-29T13:41:00;2.13;;;1.67;;
5295;SDS011;2670;42.720;23.336;2023-07-29T13:43:27;2.47;;;1.83;;
5295;SDS011;2670;42.720;23.336;2023-07-29T13:45:54;3.80;;;1.50;;
5295;SDS011;2670;42.720;23.336;2023-07-29T13:48:20;1.47;;;1.30;;
5295;SDS011;2670;42.720;23.336;2023-07-29T13:50:48;1.90;;;1.70;;
5295;SDS011;2670;42.720;23.336;2023-07-29T13:53:16;2.60;;;1.67;;
5295;SDS011;2670;42.720;23.336;2023-07-29T13:55:42;1.50;;;1.20;;
5295;SDS011;2670;42.720;23.336;2023-07-29T13:58:09;2.20;;;1.80;;
5295;SDS011;2670;42.720;23.336;2023-07-29T14:00:39;1.80;;;1.50;;
5295;SDS011;2670;42.720;23.336;2023-07-29T14:03:07;7.47;;;1.70;;
5295;SDS011;2670;42.720;23.336;2023-07-29T14:05:34;3.20;;;1.47;;
5295;SDS011;2670;42.720;23.336;2023-07-29T14:08:02;3.27;;;1.50;;
5295;SDS011;2670;42.720;23.336;2023-07-29T14:10:29;2.60;;;1.80;;
5295;SDS011;2670;42.720;23.336;2023-07-29T14:12:56;1.87;;;1.63;;
5295;SDS011;2670;42.720;23.336;2023-07-29T14:15:27;9.60;;;1.93;;
5295;SDS011;2670;42.720;23.336;2023-07-29T14:17:54;3.30;;;2.10;;
5295;SDS011;2670;42.720;23.336;2023-07-29T14:20:21;2.00;;;1.80;;
5295;SDS011;2670;42.720;23.336;2023-07-29T14:22:52;2.47;;;1.60;;
5295;SDS011;2670;42.720;23.336;2023-07-29T14:25:20;2.63;;;1.93;;
5295;SDS011;2670;42.720;23.336;2023-07-29T14:27:46;2.10;;;1.60;;
5295;SDS011;2670;42.720;23.336;2023-07-29T14:30:13;2.30;;;1.93;;
5295;SDS011;2670;42.720;23.336;2023-07-29T14:32:40;2.13;;;1.93;;
5295;SDS011;2670;42.720;23.336;2023-07-29T14:35:10;2.97;;;1.70;;
5295;SDS011;2670;42.720;23.336;2023-07-29T14:37:37;6.10;;;1.60;;
5295;SDS011;2670;42.720;23.336;2023-07-29T14:40:04;3.17;;;1.70;;
5295;SDS011;2670;42.720;23.336;2023-07-29T14:42:33;1.70;;;1.53;;
5295;SDS011;2670;42.720;23.336;2023-07-29T14:45:00;2.33;;;1.77;;
5295;SDS011;2670;42.720;23.336;2023-07-29T14:47:27;3.53;;;1.80;;
5295;SDS011;2670;42.720;23.336;2023-07-29T14:49:57;2.17;;;1.70;;
5295;SDS011;2670;42.720;23.336;2023-07-29T14:52:24;5.00;;;2.20;;
5295;SDS011;2670;42.720;23.336;2023-07-29T14:54:51;2.67;;;1.50;;
5295;SDS011;2670;42.720;23.336;2023-07-29T14:57:19;2.37;;;1.83;;
5295;SDS011;2670;42.720;23.336;2023-07-29T14:59:48;2.07;;;1.70;;
5295;SDS011;2670;42.720;23.336;2023-07-29T15:02:14;1.77;;;1.60;;
5295;SDS011;2670;42.720;23.336;2023-07-29T15:04:41;2.27;;;1.73;;
5295;SDS011;2670;42.720;23.336;2023-07-29T15:07:08;2.93;;;2.30;;